Time;durP1;ratioP1;P1;durP2;ratioP2;P2;SDS_P1;SDS_P2;PMS_P1;PMS_P2;Temp;Humidity;BMP_temperature;BMP_pressure;BME280_temperature;BME280_humidity;BME280_pressure;Samples;Min_cycle;Max_cycle;Signal;HPM_P1;HPM_P2
2021/07/15 00:02:05;;;;;;;118.15;60.60;;;19.40;99.90;;;;;;5088493;28;20036;-84
2021/07/15 00:04:31;;;;;;;100.50;56.55;;;19.40;99.90;;;;;;5054491;28;20045;-84
2021/07/15 00:06:58;;;;;;;94.90;54.83;;;19.40;99.90;;;;;;5097151;28;20028;-83
2021/07/15 00:09:24;;;;;;;116.95;58.78;;;19.40;99.90;;;;;;5065510;28;20066;-85
2021/07/15 00:11:50;;;;;;;108.28;58.60;;;19.40;99.90;;;;;;5082977;28;20047;-86
2021/07/15 00:14:19;;;;;;;107.10;57.85;;;19.40;99.90;;;;;;5086205;28;20159;-84
2021/07/15 00:16:46;;;;;;;87.55;52.00;;;19.40;99.90;;;;;;5090299;28;20040;-83
2021/07/15 00:19:15;;;;;;;87.50;53.25;;;19.40;99.90;;;;;;5095088;28;20024;-86
2021/07/15 00:21:41;;;;;;;115.30;57.17;;;19.40;99.90;;;;;;5089423;28;20055;-83
2021/07/15 00:24:07;;;;;;;84.57;51.05;;;19.40;99.90;;;;;;5081453;28;20024;-86
2021/07/15 00:26:34;;;;;;;97.00;53.92;;;19.40;99.90;;;;;;5084074;28;20366;-86
2021/07/15 00:29:03;;;;;;;105.50;55.58;;;19.40;99.90;;;;;;5101549;28;20059;-83
2021/07/15 00:31:29;;;;;;;79.90;48.25;;;19.40;99.90;;;;;;5054528;28;20048;-86
2021/07/15 00:33:55;;;;;;;74.28;49.13;;;19.40;99.90;;;;;;5067229;28;20050;-85
2021/07/15 00:36:21;;;;;;;104.10;55.95;;;19.40;99.90;;;;;;5084604;28;20051;-86
2021/07/15 00:38:47;;;;;;;92.03;53.30;;;19.40;99.90;;;;;;5082029;28;20037;-84
2021/07/15 00:41:14;;;;;;;288.23;70.35;;;19.40;99.90;;;;;;5069741;28;20033;-85
2021/07/15 00:43:40;;;;;;;100.68;58.17;;;19.40;99.90;;;;;;5097930;28;20040;-86
2021/07/15 00:46:06;;;;;;;104.47;56.72;;;19.40;99.90;;;;;;5077436;28;20100;-84
2021/07/15 00:48:34;;;;;;;105.40;56.47;;;19.40;99.90;;;;;;5071318;28;20047;-86
2021/07/15 00:50:59;;;;;;;86.50;51.55;;;19.40;99.90;;;;;;5049003;28;20047;-84
2021/07/15 00:53:25;;;;;;;109.78;53.13;;;19.40;99.90;;;;;;5054123;28;20107;-86
2021/07/15 00:55:51;;;;;;;131.65;54.38;;;19.40;99.90;;;;;;5085007;28;20040;-85
2021/07/15 00:58:17;;;;;;;87.30;49.00;;;19.30;99.90;;;;;;5063096;28;20039;-85
2021/07/15 01:00:48;;;;;;;116.72;52.83;;;19.30;99.90;;;;;;5050958;28;20063;-85
2021/07/15 01:03:15;;;;;;;89.50;47.47;;;19.30;99.90;;;;;;5085654;28;20031;-85
2021/07/15 01:05:44;;;;;;;75.57;44.60;;;19.30;99.90;;;;;;5071298;28;20048;-84
2021/07/15 01:08:12;;;;;;;75.80;45.60;;;19.30;99.90;;;;;;5066706;28;20529;-85
2021/07/15 01:10:42;;;;;;;70.85;43.22;;;19.30;99.90;;;;;;5077830;28;20482;-85
2021/07/15 01:13:36;;;;;;;73.93;43.60;;;19.30;99.90;;;;;;5062967;28;20058;-84
2021/07/15 01:16:17;;;;;;;70.13;41.15;;;19.30;99.90;;;;;;5087719;28;20069;-85
2021/07/15 01:19:04;;;;;;;78.93;45.90;;;19.30;99.90;;;;;;5097226;28;20206;-85
2021/07/15 01:21:36;;;;;;;88.47;45.50;;;19.30;99.90;;;;;;5088181;28;20075;-87
2021/07/15 01:24:38;;;;;;;77.75;43.95;;;19.30;99.90;;;;;;5091343;28;20032;-87
2021/07/15 01:27:23;;;;;;;89.95;45.90;;;19.30;99.90;;;;;;5083577;28;20185;-83
2021/07/15 01:30:08;;;;;;;77.43;46.53;;;19.30;99.90;;;;;;5083312;28;20036;-84
2021/07/15 01:32:44;;;;;;;76.60;45.83;;;19.30;99.90;;;;;;5080874;28;20048;-87
2021/07/15 01:35:13;;;;;;;98.55;46.83;;;19.30;99.90;;;;;;5082178;28;20441;-84
2021/07/15 01:37:47;;;;;;;74.05;42.83;;;19.30;99.90;;;;;;5066157;28;20044;-85
2021/07/15 01:40:17;;;;;;;75.30;42.70;;;19.30;99.90;;;;;;5081714;28;20232;-84
2021/07/15 01:42:43;;;;;;;69.13;42.45;;;19.30;99.90;;;;;;5089149;28;20024;-85
2021/07/15 01:45:11;;;;;;;75.72;43.90;;;19.30;99.90;;;;;;5083060;28;20517;-85
2021/07/15 01:47:38;;;;;;;77.07;42.58;;;19.30;99.90;;;;;;5086576;28;20517;-83
2021/07/15 01:50:04;;;;;;;76.40;44.13;;;19.30;99.90;;;;;;5079644;28;20060;-83
2021/07/15 01:52:31;;;;;;;90.07;45.65;;;19.30;99.90;;;;;;5085229;28;20490;-84
2021/07/15 01:54:57;;;;;;;83.38;46.70;;;19.30;99.90;;;;;;5070095;28;20038;-83
2021/07/15 01:57:28;;;;;;;77.97;44.20;;;19.30;99.90;;;;;;5068675;28;20032;-86
2021/07/15 01:59:57;;;;;;;91.13;47.25;;;19.30;99.90;;;;;;5077464;28;20028;-83
2021/07/15 02:02:25;;;;;;;102.38;48.50;;;19.30;99.90;;;;;;5085513;28;20032;-88
2021/07/15 02:04:54;;;;;;;78.22;44.90;;;19.30;99.90;;;;;;5067170;28;20065;-85
2021/07/15 02:07:22;;;;;;;79.38;44.90;;;19.30;99.90;;;;;;5087907;28;20383;-85
2021/07/15 02:09:50;;;;;;;78.07;44.83;;;19.30;99.90;;;;;;5070347;28;20055;-84
2021/07/15 02:12:19;;;;;;;69.85;41.05;;;19.30;99.90;;;;;;5063238;28;20036;-84
2021/07/15 02:14:49;;;;;;;82.00;45.53;;;19.30;99.90;;;;;;5072952;28;20498;-84
2021/07/15 02:17:16;;;;;;;94.22;47.03;;;19.30;99.90;;;;;;5097813;28;20059;-85
2021/07/15 02:19:44;;;;;;;92.82;47.38;;;19.30;99.90;;;;;;5054166;28;20514;-85
2021/07/15 02:22:11;;;;;;;88.10;45.03;;;19.30;99.90;;;;;;5071698;28;20532;-85
2021/07/15 02:24:39;;;;;;;78.55;46.30;;;19.30;99.90;;;;;;5071311;28;20028;-85
2021/07/15 02:27:06;;;;;;;87.32;45.50;;;19.30;99.90;;;;;;5068018;28;20184;-82
2021/07/15 02:29:35;;;;;;;85.05;45.63;;;19.30;99.90;;;;;;5086690;28;20602;-85
2021/07/15 02:32:08;;;;;;;86.38;46.00;;;19.30;99.90;;;;;;5055986;28;20040;-85
2021/07/15 02:35:00;;;;;;;92.65;48.83;;;19.30;99.90;;;;;;5052855;28;20050;-85
2021/07/15 02:37:31;;;;;;;81.43;44.25;;;19.30;99.90;;;;;;5087212;28;20066;-86
2021/07/15 02:39:57;;;;;;;82.97;44.35;;;19.30;99.90;;;;;;5082326;28;20059;-84
2021/07/15 02:42:23;;;;;;;87.50;46.78;;;19.30;99.90;;;;;;5067021;28;20407;-84
2021/07/15 02:44:50;;;;;;;84.45;45.97;;;19.30;99.90;;;;;;5069772;28;20032;-84
2021/07/15 02:47:16;;;;;;;89.32;47.78;;;19.30;99.90;;;;;;5068180;28;20065;-86
2021/07/15 02:49:43;;;;;;;80.57;45.17;;;19.30;99.90;;;;;;5066338;28;20040;-85
2021/07/15 02:52:10;;;;;;;82.00;46.35;;;19.30;99.90;;;;;;5083052;28;20043;-85
2021/07/15 02:54:38;;;;;;;84.03;46.97;;;19.30;99.90;;;;;;5081081;28;20039;-83
2021/07/15 02:57:05;;;;;;;90.47;49.15;;;19.30;99.90;;;;;;5083898;28;20028;-84
2021/07/15 03:00:05;;;;;;;96.45;48.38;;;19.30;99.90;;;;;;5087302;28;20054;-84
2021/07/15 03:02:35;;;;;;;91.90;46.33;;;19.30;99.90;;;;;;5103042;28;20058;-83
2021/07/15 03:05:04;;;;;;;96.03;50.50;;;19.30;99.90;;;;;;5089457;28;20505;-86
2021/07/15 03:07:35;;;;;;;97.20;50.25;;;19.30;99.90;;;;;;5081645;28;20068;-85
2021/07/15 03:10:03;;;;;;;84.00;46.90;;;19.30;99.90;;;;;;5079734;28;20514;-85
2021/07/15 03:12:36;;;;;;;86.65;48.83;;;19.30;99.90;;;;;;5081951;28;20048;-86
2021/07/15 03:15:04;;;;;;;86.18;47.28;;;19.30;99.90;;;;;;5084473;28;20036;-83
2021/07/15 03:17:37;;;;;;;103.32;50.45;;;19.30;99.90;;;;;;5067230;28;20631;-84
2021/07/15 03:20:08;;;;;;;;;;;19.30;99.90;;;;;;5078554;28;20028;-85
2021/07/15 03:22:38;;;;;;;95.28;47.55;;;19.30;99.90;;;;;;5099727;28;19916;-86
2021/07/15 03:25:07;;;;;;;238.68;59.15;;;19.30;99.90;;;;;;5085047;28;20062;-85
2021/07/15 03:27:37;;;;;;;92.10;46.20;;;19.30;99.90;;;;;;5084587;28;20047;-84
2021/07/15 03:30:07;;;;;;;86.57;47.58;;;19.30;99.90;;;;;;5080608;28;20432;-84
2021/07/15 03:32:35;;;;;;;91.78;47.70;;;19.30;99.90;;;;;;5069442;28;20059;-85
2021/07/15 03:35:02;;;;;;;91.50;48.45;;;19.30;99.90;;;;;;5069001;28;20123;-84
2021/07/15 03:37:28;;;;;;;99.15;49.38;;;19.30;99.90;;;;;;5085258;28;20052;-85
2021/07/15 03:39:55;;;;;;;90.15;46.65;;;19.30;99.90;;;;;;5084560;28;20036;-83
2021/07/15 03:42:22;;;;;;;104.32;50.85;;;19.30;99.90;;;;;;5076193;28;20384;-85
2021/07/15 03:44:48;;;;;;;88.22;47.05;;;19.30;99.90;;;;;;5052614;28;20036;-84
2021/07/15 03:47:16;;;;;;;84.97;46.75;;;19.30;99.90;;;;;;5081918;28;20046;-85
2021/07/15 03:49:44;;;;;;;89.82;48.40;;;19.30;99.90;;;;;;5083932;28;20036;-84
2021/07/15 03:52:14;;;;;;;86.93;47.33;;;19.30;99.90;;;;;;5071778;28;20042;-84
2021/07/15 03:54:45;;;;;;;92.95;46.88;;;19.30;99.90;;;;;;5099227;28;20167;-85
2021/07/15 03:57:14;;;;;;;85.15;46.85;;;19.30;99.90;;;;;;5080180;28;20478;-86
2021/07/15 03:59:45;;;;;;;85.85;48.00;;;19.30;99.90;;;;;;5095898;28;20031;-86
2021/07/15 04:02:16;;;;;;;89.18;46.35;;;19.30;99.90;;;;;;5080704;28;20024;-84
2021/07/15 04:05:03;;;;;;;89.68;48.60;;;19.30;99.90;;;;;;5090659;28;20040;-85
2021/07/15 04:07:30;;;;;;;83.78;44.40;;;19.30;99.90;;;;;;5080982;28;20467;-85
2021/07/15 04:09:58;;;;;;;81.20;45.35;;;19.20;99.90;;;;;;5091093;28;20045;-85
2021/07/15 04:12:26;;;;;;;73.18;40.97;;;19.20;99.90;;;;;;5098191;28;20032;-84
2021/07/15 04:15:16;;;;;;;70.43;38.05;;;19.30;99.90;;;;;;5086308;28;20032;-85
2021/07/15 04:18:10;;;;;;;63.97;36.90;;;19.30;99.90;;;;;;5094947;28;20044;-86
2021/07/15 04:20:41;;;;;;;74.07;39.85;;;19.30;99.90;;;;;;5095308;28;20056;-86
2021/07/15 04:23:09;;;;;;;78.32;39.72;;;19.20;99.90;;;;;;5083975;28;20024;-85
2021/07/15 04:25:37;;;;;;;76.18;39.15;;;19.20;99.90;;;;;;5090849;28;20036;-83
2021/07/15 04:28:04;;;;;;;80.80;38.88;;;19.20;99.90;;;;;;5078273;28;20107;-88
2021/07/15 04:30:31;;;;;;;71.28;37.28;;;19.20;99.90;;;;;;5096524;28;20036;-85
2021/07/15 04:33:03;;;;;;;67.45;35.15;;;19.20;99.90;;;;;;5059292;28;20055;-84
2021/07/15 04:35:48;;;;;;;70.07;34.05;;;19.20;99.90;;;;;;5105923;28;20044;-85
2021/07/15 04:38:16;;;;;;;56.22;31.27;;;19.20;99.90;;;;;;5103911;28;20030;-84
2021/07/15 04:40:42;;;;;;;79.00;36.65;;;19.10;99.90;;;;;;5086173;28;20039;-85
2021/07/15 04:43:09;;;;;;;85.55;36.33;;;19.10;99.90;;;;;;5070563;28;20032;-84
2021/07/15 04:45:40;;;;;;;66.43;33.65;;;19.10;99.90;;;;;;5084794;28;20075;-86
2021/07/15 04:48:07;;;;;;;107.30;37.00;;;19.10;99.90;;;;;;5084797;28;20086;-85
2021/07/15 04:50:35;;;;;;;62.17;33.15;;;19.10;99.90;;;;;;5100793;28;20115;-83
2021/07/15 04:53:10;;;;;;;59.95;30.88;;;19.10;99.90;;;;;;5107048;28;20028;-86
2021/07/15 04:55:37;;;;;;;65.82;33.22;;;19.10;99.90;;;;;;5063543;28;20090;-85
2021/07/15 04:58:05;;;;;;;74.13;35.72;;;19.10;99.90;;;;;;5081496;28;20482;-82
2021/07/15 05:00:32;;;;;;;72.05;35.15;;;19.10;99.90;;;;;;5098473;28;20104;-84
2021/07/15 05:03:07;;;;;;;76.55;36.38;;;19.10;99.90;;;;;;5090180;28;20110;-85
2021/07/15 05:05:34;;;;;;;69.68;32.70;;;19.10;99.90;;;;;;5096580;28;20382;-82
2021/07/15 05:08:01;;;;;;;68.32;32.80;;;19.10;99.90;;;;;;5078896;28;20572;-85
2021/07/15 05:10:27;;;;;;;70.93;34.17;;;19.10;99.90;;;;;;5079878;28;20052;-86
2021/07/15 05:12:53;;;;;;;77.15;35.78;;;19.10;99.90;;;;;;5074945;28;20015;-84
2021/07/15 05:15:19;;;;;;;72.70;35.85;;;19.00;99.90;;;;;;5077643;28;20055;-86
2021/07/15 05:17:45;;;;;;;77.88;35.80;;;19.00;99.90;;;;;;5066605;28;20042;-83
2021/07/15 05:20:12;;;;;;;91.63;41.05;;;19.00;99.90;;;;;;5059456;28;20028;-85
2021/07/15 05:22:38;;;;;;;94.70;42.67;;;19.00;99.90;;;;;;5066298;28;20047;-85
2021/07/15 05:25:06;;;;;;;84.35;41.85;;;19.00;99.90;;;;;;5086167;28;20028;-89
2021/07/15 05:27:32;;;;;;;89.13;42.38;;;19.00;99.90;;;;;;5065008;28;20056;-83
2021/07/15 05:29:58;;;;;;;82.88;42.15;;;18.90;99.90;;;;;;5084066;28;20039;-85
2021/07/15 05:32:25;;;;;;;92.90;42.13;;;18.90;99.90;;;;;;5073381;28;20032;-85
2021/07/15 05:34:51;;;;;;;82.40;43.10;;;18.90;99.90;;;;;;5091142;28;20032;-82
2021/07/15 05:37:17;;;;;;;81.13;40.60;;;18.90;99.90;;;;;;5090401;28;20459;-83
2021/07/15 05:39:44;;;;;;;79.95;39.08;;;18.90;99.90;;;;;;5074715;28;20060;-86
2021/07/15 05:42:11;;;;;;;82.07;41.00;;;18.90;99.90;;;;;;5060436;28;20093;-84
2021/07/15 05:44:38;;;;;;;85.72;40.95;;;18.90;99.90;;;;;;5097290;28;20032;-83
2021/07/15 05:47:04;;;;;;;71.43;40.88;;;18.90;99.90;;;;;;5076696;28;20036;-85
2021/07/15 05:49:30;;;;;;;76.22;40.70;;;18.80;99.90;;;;;;5079927;28;20028;-85
2021/07/15 05:51:55;;;;;;;69.65;35.33;;;18.90;99.90;;;;;;5062403;28;20036;-87
2021/07/15 05:54:23;;;;;;;61.65;37.38;;;18.90;99.90;;;;;;5075199;28;20054;-86
2021/07/15 05:56:48;;;;;;;70.65;39.95;;;18.90;99.90;;;;;;5063966;28;20047;-84
2021/07/15 05:59:14;;;;;;;73.43;41.30;;;18.90;99.90;;;;;;5063208;28;20036;-90
2021/07/15 06:01:47;;;;;;;77.72;41.88;;;18.80;99.90;;;;;;5069680;28;20063;-87
2021/07/15 06:04:13;;;;;;;72.00;41.45;;;18.80;99.90;;;;;;5086264;28;20399;-86
2021/07/15 06:06:39;;;;;;;75.63;41.30;;;18.80;99.90;;;;;;5069606;28;20189;-89
2021/07/15 06:09:05;;;;;;;84.53;41.88;;;18.80;99.90;;;;;;5086214;28;20052;-84
2021/07/15 06:11:31;;;;;;;65.05;37.85;;;18.80;99.90;;;;;;5087586;28;20032;-87
2021/07/15 06:13:57;;;;;;;59.10;34.35;;;18.80;99.90;;;;;;5073564;28;20104;-85
2021/07/15 06:16:22;;;;;;;75.78;37.55;;;18.80;99.90;;;;;;5053433;28;20047;-85
2021/07/15 06:18:49;;;;;;;67.85;36.13;;;18.80;99.90;;;;;;5088069;28;20096;-89
2021/07/15 06:21:15;;;;;;;89.18;40.70;;;18.80;99.90;;;;;;5079922;28;20062;-87
2021/07/15 06:23:41;;;;;;;87.35;38.60;;;18.80;99.90;;;;;;5048900;28;20032;-85
2021/07/15 06:26:06;;;;;;;74.38;38.92;;;18.80;99.90;;;;;;5086849;28;20028;-87
2021/07/15 06:28:32;;;;;;;78.35;34.90;;;18.80;99.90;;;;;;5098735;28;20121;-87
2021/07/15 06:30:59;;;;;;;73.13;34.78;;;18.80;99.90;;;;;;5098445;28;20497;-88
2021/07/15 06:33:24;;;;;;;65.32;33.63;;;18.80;99.90;;;;;;5081127;28;20028;-86
2021/07/15 06:35:51;;;;;;;73.30;33.47;;;18.90;99.90;;;;;;5067534;28;20120;-88
2021/07/15 06:38:18;;;;;;;67.90;34.92;;;18.90;99.90;;;;;;5068648;28;20040;-88
2021/07/15 06:40:51;;;;;;;65.35;32.55;;;18.80;99.90;;;;;;5104393;28;20032;-87
2021/07/15 06:43:17;;;;;;;68.03;34.30;;;18.90;99.90;;;;;;5101414;28;20043;-88
2021/07/15 06:45:43;;;;;;;84.57;35.67;;;18.90;99.90;;;;;;5066453;28;20032;-86
2021/07/15 06:48:09;;;;;;;70.78;33.03;;;18.90;99.90;;;;;;5049737;28;20043;-87
2021/07/15 06:50:35;;;;;;;71.50;32.50;;;19.00;99.90;;;;;;5093632;28;20067;-90
2021/07/15 06:53:13;;;;;;;59.60;29.75;;;19.00;99.90;;;;;;5067044;28;20029;-85
2021/07/15 06:55:40;;;;;;;63.00;30.00;;;19.00;99.90;;;;;;5070962;28;20086;-86
2021/07/15 06:58:06;;;;;;;51.45;28.33;;;19.00;99.90;;;;;;5069037;28;20048;-85
2021/07/15 07:00:33;;;;;;;53.50;27.85;;;19.00;99.90;;;;;;5078393;28;20425;-88
2021/07/15 07:02:59;;;;;;;58.72;30.52;;;19.00;99.90;;;;;;5090480;28;20028;-88
2021/07/15 07:05:25;;;;;;;58.10;26.67;;;19.00;99.90;;;;;;5064061;28;20035;-87
2021/07/15 07:07:52;;;;;;;56.15;27.27;;;19.00;99.90;;;;;;5084348;28;20036;-86
2021/07/15 07:10:19;;;;;;;56.13;29.55;;;19.00;99.90;;;;;;5078929;28;20033;-88
2021/07/15 07:12:46;;;;;;;53.20;25.80;;;19.00;99.90;;;;;;5092555;28;20060;-86
2021/07/15 07:15:17;;;;;;;51.05;27.60;;;18.90;99.90;;;;;;5083242;28;20056;-87
2021/07/15 07:17:43;;;;;;;54.20;27.30;;;18.90;99.90;;;;;;5089298;28;20082;-85
2021/07/15 07:20:12;;;;;;;50.58;26.15;;;18.90;99.90;;;;;;5061795;28;20052;-86
2021/07/15 07:22:38;;;;;;;40.88;24.20;;;18.90;99.90;;;;;;5079897;28;20044;-86
2021/07/15 07:25:06;;;;;;;47.88;22.63;;;18.90;99.90;;;;;;5080059;28;20032;-85
2021/07/15 07:27:32;;;;;;;35.75;22.02;;;18.90;99.90;;;;;;5079965;28;20056;-85
2021/07/15 07:30:01;;;;;;;42.97;23.13;;;18.90;99.90;;;;;;5097123;28;20485;-87
2021/07/15 07:32:27;;;;;;;39.15;22.88;;;18.90;99.90;;;;;;5071202;28;20032;-86
2021/07/15 07:34:53;;;;;;;35.40;19.20;;;18.90;99.90;;;;;;5065633;28;20043;-87
2021/07/15 07:37:19;;;;;;;38.45;21.60;;;18.80;99.90;;;;;;5074399;28;20120;-85
2021/07/15 07:39:45;;;;;;;32.47;19.13;;;18.90;99.90;;;;;;5079263;28;20059;-86
2021/07/15 07:42:11;;;;;;;30.45;18.83;;;18.90;99.90;;;;;;5059763;28;20478;-84
2021/07/15 07:44:38;;;;;;;24.60;15.18;;;18.90;99.90;;;;;;5092504;28;20040;-85
2021/07/15 07:47:04;;;;;;;20.58;11.60;;;18.90;99.90;;;;;;5089244;28;20405;-88
2021/07/15 07:49:29;;;;;;;17.17;11.15;;;18.80;99.90;;;;;;5071733;28;20036;-85
2021/07/15 07:51:55;;;;;;;21.65;13.02;;;18.80;99.90;;;;;;5087515;28;20050;-85
2021/07/15 07:54:21;;;;;;;18.60;12.43;;;18.80;99.90;;;;;;5073795;28;20039;-85
2021/07/15 07:56:47;;;;;;;23.45;12.45;;;18.80;99.90;;;;;;5051885;28;20043;-87
2021/07/15 07:59:13;;;;;;;22.92;12.32;;;18.90;99.90;;;;;;5066693;28;20321;-88
2021/07/15 08:01:39;;;;;;;25.80;11.18;;;18.90;99.90;;;;;;5084236;28;20044;-84
2021/07/15 08:04:06;;;;;;;11.98;8.05;;;18.80;99.90;;;;;;5084814;28;20036;-85
2021/07/15 08:06:36;;;;;;;14.07;7.72;;;18.80;99.90;;;;;;5097591;28;20047;-86
2021/07/15 08:09:16;;;;;;;12.48;8.63;;;18.80;99.90;;;;;;5064824;28;20070;-87
2021/07/15 08:11:47;;;;;;;14.43;8.63;;;18.80;99.90;;;;;;5087448;28;20436;-85
2021/07/15 08:14:13;;;;;;;12.70;8.50;;;18.80;99.90;;;;;;5092337;28;20028;-88
2021/07/15 08:16:39;;;;;;;12.63;8.50;;;18.70;99.90;;;;;;5065852;28;20043;-86
2021/07/15 08:19:05;;;;;;;13.30;9.57;;;18.70;99.90;;;;;;5078460;28;20036;-85
2021/07/15 08:21:32;;;;;;;13.20;9.25;;;18.70;99.90;;;;;;5071655;28;20042;-84
2021/07/15 08:23:59;;;;;;;20.48;11.48;;;18.70;99.90;;;;;;5096620;28;20112;-84
2021/07/15 08:26:25;;;;;;;11.93;9.70;;;18.70;99.90;;;;;;5078580;28;20602;-85
2021/07/15 08:28:51;;;;;;;12.90;8.98;;;18.70;99.90;;;;;;5084977;28;20036;-86
2021/07/15 08:31:17;;;;;;;17.77;11.35;;;18.70;99.90;;;;;;5069930;28;20541;-88
2021/07/15 08:33:42;;;;;;;21.33;11.35;;;18.60;99.90;;;;;;5082432;28;20035;-87
2021/07/15 08:36:08;;;;;;;25.88;13.00;;;18.60;99.90;;;;;;5094937;28;20029;-87
2021/07/15 08:38:34;;;;;;;18.65;13.77;;;18.60;99.90;;;;;;5087611;28;20038;-86
2021/07/15 08:41:00;;;;;;;21.50;14.02;;;18.60;99.90;;;;;;5089980;28;20040;-86
2021/07/15 08:43:26;;;;;;;27.80;16.42;;;18.60;99.90;;;;;;5085603;28;20079;-86
2021/07/15 08:45:52;;;;;;;28.52;16.73;;;18.60;99.90;;;;;;5067799;28;20040;-86
2021/07/15 08:48:19;;;;;;;30.90;16.27;;;18.60;99.90;;;;;;5061727;28;20052;-86
2021/07/15 08:50:46;;;;;;;32.88;16.15;;;18.60;99.90;;;;;;5082227;28;20453;-88
2021/07/15 08:53:15;;;;;;;35.70;19.27;;;18.60;99.90;;;;;;5092374;28;20036;-86
2021/07/15 08:58:20;;;;;;;39.22;17.98;;;18.60;99.90;;;;;;5089005;28;20067;-86
2021/07/15 09:00:49;;;;;;;40.97;18.27;;;18.60;99.90;;;;;;5074910;28;20036;-85
2021/07/15 09:03:15;;;;;;;45.67;19.90;;;18.60;99.90;;;;;;5091344;28;20035;-86
2021/07/15 09:05:42;;;;;;;39.58;19.73;;;18.60;99.90;;;;;;5091102;28;20104;-85
2021/07/15 09:08:08;;;;;;;38.67;19.02;;;18.60;99.90;;;;;;5074214;28;20028;-86
2021/07/15 09:10:37;;;;;;;38.10;18.90;;;18.70;99.90;;;;;;5111450;28;20084;-86
2021/07/15 09:13:03;;;;;;;44.05;20.48;;;18.70;99.90;;;;;;5075523;28;20090;-84
2021/07/15 09:15:29;;;;;;;41.38;19.38;;;18.70;99.90;;;;;;5090958;28;20662;-84
2021/07/15 09:17:55;;;;;;;47.58;19.50;;;18.70;99.90;;;;;;5070199;28;20036;-87
2021/07/15 09:20:30;;;;;;;36.80;16.92;;;18.70;99.90;;;;;;5087915;28;20036;-84
2021/07/15 09:23:02;;;;;;;33.58;15.65;;;18.70;99.90;;;;;;5083200;28;20038;-85
2021/07/15 09:25:52;;;;;;;38.90;17.48;;;18.70;99.90;;;;;;5104532;28;20495;-83
2021/07/15 09:28:26;;;;;;;32.03;16.95;;;18.70;99.90;;;;;;5085254;28;20035;-85
2021/07/15 09:30:52;;;;;;;35.85;17.65;;;18.70;99.90;;;;;;5075148;28;20043;-83
2021/07/15 09:33:18;;;;;;;34.30;17.73;;;18.70;99.90;;;;;;5073314;28;20062;-86
2021/07/15 09:35:48;;;;;;;33.70;18.23;;;18.70;99.90;;;;;;5062419;28;20155;-86
2021/07/15 09:38:23;;;;;;;36.95;17.70;;;18.70;99.90;;;;;;5075862;28;20031;-86
2021/07/15 09:40:55;;;;;;;22.85;15.38;;;18.70;99.90;;;;;;5083504;28;20043;-85
2021/07/15 09:43:22;;;;;;;37.38;17.75;;;18.70;99.90;;;;;;5084891;28;20080;-87
2021/07/15 09:45:50;;;;;;;36.05;18.58;;;18.70;99.90;;;;;;5109843;28;20028;-85
2021/07/15 09:48:30;;;;;;;31.45;17.23;;;18.70;99.90;;;;;;5060153;28;20055;-82
2021/07/15 09:50:59;;;;;;;29.63;16.02;;;18.70;99.90;;;;;;5067587;28;20517;-84
2021/07/15 09:53:35;;;;;;;45.97;17.98;;;18.80;99.90;;;;;;5071705;28;20479;-85
2021/07/15 09:56:11;;;;;;;34.67;18.88;;;18.70;99.90;;;;;;5077602;28;20117;-83
2021/07/15 09:59:03;;;;;;;38.90;18.40;;;18.80;99.90;;;;;;5084049;28;20056;-84
2021/07/15 10:01:29;;;;;;;41.15;18.42;;;18.70;99.90;;;;;;5069425;28;20124;-84
2021/07/15 10:03:55;;;;;;;38.10;19.38;;;18.70;99.90;;;;;;5074679;28;20540;-82
2021/07/15 10:06:22;;;;;;;44.90;21.63;;;18.70;99.90;;;;;;5081853;28;20028;-83
2021/07/15 10:08:55;;;;;;;46.35;21.90;;;18.70;99.90;;;;;;5062752;28;20418;-84
2021/07/15 10:11:29;;;;;;;42.20;19.23;;;18.70;99.90;;;;;;5090240;28;20043;-85
2021/07/15 10:14:04;;;;;;;37.13;20.27;;;18.70;99.90;;;;;;5084743;28;20058;-84
2021/07/15 10:16:33;;;;;;;40.53;21.25;;;18.70;99.90;;;;;;5073725;28;20076;-84
2021/07/15 10:18:59;;;;;;;40.22;20.05;;;18.60;99.90;;;;;;5090769;28;20034;-82
2021/07/15 10:21:31;;;;;;;53.50;24.58;;;18.60;99.90;;;;;;5091343;28;20086;-82
2021/07/15 10:24:02;;;;;;;;;;;18.70;99.90;;;;;;5089542;28;20399;-84
2021/07/15 10:26:28;;;;;;;55.08;23.80;;;18.60;99.90;;;;;;5081874;28;19923;-83
2021/07/15 10:28:55;;;;;;;50.30;21.92;;;18.70;99.90;;;;;;5068874;28;20115;-85
2021/07/15 10:31:23;;;;;;;55.03;24.38;;;18.70;99.90;;;;;;5068963;28;20040;-84
2021/07/15 10:33:49;;;;;;;55.30;25.95;;;18.60;99.90;;;;;;5088544;28;20028;-84
2021/07/15 10:36:15;;;;;;;43.40;22.10;;;18.60;99.90;;;;;;5088516;28;20119;-84
2021/07/15 10:38:44;;;;;;;56.00;24.73;;;18.60;99.90;;;;;;5057139;28;20036;-83
2021/07/15 10:41:11;;;;;;;52.80;23.65;;;18.60;99.90;;;;;;5074894;28;20028;-83
2021/07/15 10:43:41;;;;;;;51.00;24.10;;;18.60;99.90;;;;;;5054572;28;20090;-82
2021/07/15 10:46:09;;;;;;;63.33;24.35;;;18.60;99.90;;;;;;5088436;28;20034;-85
2021/07/15 10:48:37;;;;;;;53.55;22.95;;;18.60;99.90;;;;;;5088288;28;20048;-83
2021/07/15 10:51:04;;;;;;;55.75;23.98;;;18.50;99.90;;;;;;5086170;28;20052;-84
2021/07/15 10:53:34;;;;;;;43.83;20.98;;;18.50;99.90;;;;;;5085359;28;20373;-84
2021/07/15 10:56:02;;;;;;;47.83;21.70;;;18.50;99.90;;;;;;5088074;28;20043;-82
2021/07/15 10:58:51;;;;;;;44.05;22.15;;;18.60;99.90;;;;;;5069686;28;20039;-83
2021/07/15 11:01:32;;;;;;;49.90;23.58;;;18.60;99.90;;;;;;5088504;28;20051;-84
2021/07/15 11:04:13;;;;;;;41.75;21.02;;;18.70;99.90;;;;;;5088354;28;20086;-82
2021/07/15 11:06:47;;;;;;;42.83;21.88;;;18.70;99.90;;;;;;5083948;28;20506;-81
2021/07/15 11:09:33;;;;;;;51.92;23.52;;;18.70;99.90;;;;;;5072573;28;20711;-82
2021/07/15 11:12:02;;;;;;;54.70;21.45;;;18.70;99.90;;;;;;5085344;28;20055;-83
2021/07/15 11:14:38;;;;;;;49.92;21.38;;;18.70;99.90;;;;;;5088355;28;20055;-81
2021/07/15 11:17:27;;;;;;;42.25;19.75;;;18.80;99.90;;;;;;5075923;28;20040;-81
2021/07/15 11:20:13;;;;;;;54.35;22.45;;;18.70;99.90;;;;;;5060041;28;20047;-83
2021/07/15 11:22:45;;;;;;;56.58;22.83;;;18.70;99.90;;;;;;5085363;28;21529;-82
2021/07/15 11:25:16;;;;;;;46.20;19.30;;;18.80;99.90;;;;;;5084109;28;20036;-84
2021/07/15 11:27:47;;;;;;;48.42;20.65;;;18.70;99.90;;;;;;5102899;28;20043;-83
2021/07/15 11:30:25;;;;;;;43.70;19.40;;;18.70;99.90;;;;;;5094857;28;20052;-82
2021/07/15 11:32:50;;;;;;;43.50;19.73;;;18.80;99.90;;;;;;5093595;28;20032;-85
2021/07/15 11:35:27;;;;;;;40.53;19.05;;;18.80;99.90;;;;;;5077323;28;20089;-83
2021/07/15 11:38:11;;;;;;;45.88;21.00;;;18.80;99.90;;;;;;5086881;28;20470;-82
2021/07/15 11:40:36;;;;;;;43.38;22.52;;;18.80;99.90;;;;;;5091110;28;20085;-83
2021/07/15 11:43:31;;;;;;;52.40;23.67;;;18.80;99.90;;;;;;5092201;28;20680;-82
2021/07/15 11:46:04;;;;;;;38.65;21.35;;;18.80;99.90;;;;;;5092927;28;20036;-84
2021/07/15 11:52:04;;;;;;;47.78;24.08;;;18.90;99.90;;;;;;5060320;28;20048;-86
2021/07/15 11:54:46;;;;;;;50.45;22.70;;;18.90;99.90;;;;;;5090005;28;20121;-83
2021/07/15 11:57:16;;;;;;;50.13;23.42;;;18.90;99.90;;;;;;5079043;28;20495;-84
2021/07/15 11:59:47;;;;;;;36.42;20.20;;;19.00;99.90;;;;;;5075850;28;20071;-82
2021/07/15 12:02:42;;;;;;;37.67;19.45;;;19.00;99.90;;;;;;5088057;28;20078;-86
2021/07/15 12:05:10;;;;;;;39.03;16.65;;;19.10;99.90;;;;;;5104829;28;20037;-84
2021/07/15 12:07:42;;;;;;;38.40;16.95;;;19.10;99.90;;;;;;5094216;28;20036;-84
2021/07/15 12:10:22;;;;;;;33.58;15.45;;;19.20;99.90;;;;;;5092596;28;20482;-83
2021/07/15 12:12:49;;;;;;;30.95;14.65;;;19.20;99.90;;;;;;5087083;28;20483;-83
2021/07/15 12:15:19;;;;;;;34.00;15.80;;;19.30;99.90;;;;;;5093402;28;20039;-84
2021/07/15 12:17:49;;;;;;;32.58;15.60;;;19.30;99.90;;;;;;5092903;28;20118;-82
2021/07/15 12:20:16;;;;;;;36.85;15.52;;;19.40;99.90;;;;;;5092165;28;20520;-83
2021/07/15 12:22:47;;;;;;;28.42;14.75;;;19.40;99.90;;;;;;5075714;28;20316;-83
2021/07/15 12:25:18;;;;;;;35.65;15.52;;;19.40;99.90;;;;;;5075208;28;20036;-83
2021/07/15 12:27:47;;;;;;;32.97;15.35;;;19.40;99.90;;;;;;5073131;28;20040;-83
2021/07/15 12:30:14;;;;;;;33.22;15.43;;;19.40;99.90;;;;;;5069852;28;20544;-82
2021/07/15 12:32:53;;;;;;;40.72;17.17;;;19.50;99.90;;;;;;5092441;28;20043;-82
2021/07/15 12:35:19;;;;;;;37.45;16.33;;;19.40;99.90;;;;;;5075209;28;20069;-81
2021/07/15 12:37:45;;;;;;;33.05;16.77;;;19.40;99.90;;;;;;5088857;28;20036;-83
2021/07/15 12:40:11;;;;;;;37.13;17.63;;;19.40;99.90;;;;;;5065554;28;20562;-86
2021/07/15 12:42:37;;;;;;;41.05;16.65;;;19.50;99.90;;;;;;5078736;28;20045;-82
2021/07/15 12:45:17;;;;;;;46.83;16.73;;;19.50;99.90;;;;;;5099355;28;20035;-84
2021/07/15 12:47:59;;;;;;;36.28;15.68;;;19.40;99.90;;;;;;5075218;28;20035;-84